Latest Coastal Weather Observations for Flinders Island Airport

IDT60701

Issued at 10:12 am EST Monday 16 September 2019 (issued every 10 minutes, with the page automatically refreshed every 10 minutes)

About coastal observations | Map of coastal stations | Coastal observations for TAS | Marine services | Other Formats
Station Details ID: 099005 Name: FLINDERS ISLAND AIRPORT Lat: -40.09 Lon: 148.00 Height: 9.0 m
Data from the previous 72 hours. | See also: Recent months at Flinders Island Airport
Date/Time
EST
Wind Sea
Height
m
Swell Vis
km
Cloud Weather Temp
°C
Press
hPa
Rain since
9am
mm
Dir  Spd
kts
Gust
kts
Height
m
Period
s
Dir
16/10:00am WSW 27 31 - - - - 10 Clear - 11.2 1015.6 0.0
16/09:30am WSW 29 34 - - - - 10 - - 10.7 1015.4 0.0
16/09:00am WSW 26 31 - - - - 10 - - 10.7 1015.2 5.4
16/08:30am WSW 29 34 - - - - 10 Partly cloudy - 10.6 1014.5 5.4
16/08:00am WSW 29 34 - - - - 10 Partly cloudy - 10.4 1014.0 5.4
16/07:30am WSW 29 36 - - - - 10 Partly cloudy - 10.2 1013.4 5.4
16/07:10am WSW 30 40 - - - - 10 Partly cloudy - 10.0 1013.0 5.4
16/07:00am WSW 30 38 - - - - 10 Partly cloudy - 10.0 1012.9 5.4
16/06:30am WSW 28 35 - - - - 10 Partly cloudy - 10.0 1012.7 5.4
16/06:07am WSW 30 40 - - - - 10 Partly cloudy - 10.3 1012.3 5.4
16/06:00am WSW 31 40 - - - - 10 Cloudy - 10.5 1012.2 5.4
16/05:35am WSW 28 39 - - - - 10 Partly cloudy - 10.6 1011.9 5.4
16/05:30am WSW 28 35 - - - - 10 Partly cloudy - 10.7 1011.9 5.4
16/05:17am WSW 26 36 - - - - 10 Partly cloudy - 10.8 1011.5 5.4
16/05:00am W 25 32 - - - - 10 Partly cloudy - 10.8 1011.2 5.4
16/04:30am W 25 34 - - - - 10 Partly cloudy - 11.1 1010.7 5.4
16/04:28am W 24 34 - - - - 10 Partly cloudy - 11.1 1010.7 5.4
16/04:00am W 26 34 - - - - 10 Partly cloudy - 10.9 1010.5 5.4
16/03:30am W 23 31 - - - - 10 Partly cloudy - 11.2 1010.2 5.4
16/03:00am W 23 29 - - - - 10 Mostly cloudy - 11.1 1010.0 5.4
16/02:30am W 25 34 - - - - 10 Partly cloudy - 10.9 1010.1 5.4
16/02:18am W 23 36 - - - - 10 Partly cloudy - 11.0 1009.9 5.4
16/02:00am W 24 29 - - - - 10 Partly cloudy - 11.1 1010.1 5.4
16/01:30am W 21 29 - - - - 10 Partly cloudy - 10.9 1010.2 5.4
16/01:00am W 23 31 - - - - 10 Partly cloudy - 11.3 1010.2 5.4
16/12:30am W 25 31 - - - - 10 Partly cloudy - 11.4 1010.0 5.4
16/12:00am W 21 27 - - - - 10 Cloudy - 11.5 1010.0 5.4
 
Date/Time
EST
Wind Sea
Height
m
Swell Vis
km
Cloud Weather Temp
°C
Press
hPa
Rain since
9am
mm
Dir  Spd
kts
Gust
kts
Height
m
Period
s
Dir
15/11:30pm W 15 19 - - - - 10 Partly cloudy - 11.3 1010.3 5.4
15/11:00pm W 13 19 - - - - 10 Cloudy - 11.1 1010.3 5.4
15/10:30pm WNW 11 15 - - - - 10 Cloudy - 10.5 1010.4 5.4
15/10:13pm WNW 13 17 - - - - 10 Partly cloudy - 10.3 1010.4 5.4
15/10:00pm W 16 21 - - - - 10 Partly cloudy - 10.4 1010.3 5.4
15/09:49pm W 22 28 - - - - 9 Partly cloudy - 10.4 1010.7 5.4
15/09:30pm W 18 22 - - - - 5 Cloudy - 11.2 1010.7 5.4
15/09:00pm W 17 19 - - - - 2 Cloudy Rain 10.9 1010.6 5.0
15/08:30pm W 15 18 - - - - 2 Cloudy - 11.6 1010.7 4.2
15/08:00pm WNW 13 18 - - - - 3 Cloudy - 12.7 1010.6 3.6
15/07:30pm WNW 14 18 - - - - 4 Partly cloudy - 12.6 1010.9 3.2
15/07:16pm NW 14 19 - - - - 5 Partly cloudy - 12.7 1010.9 3.2
15/07:03pm NW 14 17 - - - - 9 Partly cloudy - 12.7 1010.8 3.2
15/07:00pm NW 13 18 - - - - 8 Partly cloudy - 12.6 1010.9 3.2
15/06:30pm NW 12 17 - - - - 3 Partly cloudy - 12.4 1010.9 3.0
15/06:22pm NW 10 13 - - - - 5 Partly cloudy - 12.4 1011.0 2.4
15/06:00pm NW 9 12 - - - - 8 Cloudy Rain 12.4 1010.7 2.2
15/05:30pm WNW 9 14 - - - - 9 Partly cloudy - 12.5 1011.0 2.0
15/05:12pm WNW 10 15 - - - - 6 Partly cloudy - 12.5 1010.9 2.0
15/05:00pm NW 9 13 - - - - 7 Partly cloudy - 12.6 1010.7 1.6
15/04:55pm WNW 10 14 - - - - 7 Partly cloudy - 12.6 1010.9 1.4
15/04:30pm NW 11 15 - - - - 7 Cloudy - 12.7 1011.1 0.8
15/04:08pm WNW 10 15 - - - - 7 Partly cloudy - 13.0 1011.4 0.4
15/04:00pm WNW 10 14 - - - - 10 Partly cloudy - 13.2 1011.3 0.0
15/03:30pm WNW 11 15 - - - - 10 Partly cloudy - 13.4 1011.0 0.0
15/03:00pm WNW 13 17 - - - - 10 Cloudy - 13.4 1011.7 0.0
15/02:30pm WNW 14 19 - - - - 10 Cloudy - 13.7 1011.9 0.0
15/02:16pm WNW 13 17 - - - - 10 Partly cloudy - 13.8 1011.7 0.0
15/02:00pm WNW 14 19 - - - - 10 Partly cloudy - 14.0 1011.7 0.0
15/01:42pm WNW 17 22 - - - - 10 Partly cloudy - 14.4 1011.9 0.0
15/01:30pm NW 19 24 - - - - 10 Partly cloudy - 14.8 1011.9 0.0
15/01:20pm NW 17 22 - - - - 10 Partly cloudy - 14.5 1011.8 0.0
15/01:04pm WNW 16 21 - - - - 10 Partly cloudy - 14.6 1012.1 0.0
15/01:00pm WNW 16 21 - - - - 10 Partly cloudy - 14.5 1012.1 0.0
15/12:30pm WNW 17 23 - - - - 10 Partly cloudy - 15.2 1012.6 0.0
15/12:00pm WNW 17 21 - - - - 10 Cloudy - 15.2 1012.8 0.0
15/11:42am NW 17 24 - - - - 10 Partly cloudy - 14.8 1013.2 0.0
15/11:30am WNW 16 21 - - - - 10 Partly cloudy - 15.0 1013.2 0.0
15/11:00am WNW 16 22 - - - - 10 Cloudy - 15.5 1013.6 0.0
15/10:30am WNW 18 25 - - - - 10 Cloudy - 15.1 1014.1 0.0
15/10:00am WNW 18 22 - - - - 10 Cloudy - 15.2 1014.2 0.0
15/09:30am WNW 20 26 - - - - 10 Cloudy - 14.6 1014.4 0.0
15/09:00am WNW 19 26 - - - - 10 Cloudy - 14.3 1014.4 0.0
15/08:30am WNW 17 24 - - - - 10 Cloudy - 13.9 1014.4 0.0
15/08:00am WNW 18 29 - - - - 10 Partly cloudy - 14.2 1014.2 0.0
15/07:58am WNW 17 29 - - - - 10 Partly cloudy - 14.1 1014.2 0.0
15/07:30am WNW 17 22 - - - - 10 Cloudy - 13.8 1013.9 0.0
15/07:17am WNW 17 27 - - - - 10 Cloudy - 13.8 1013.6 0.0
15/07:00am WNW 19 27 - - - - 10 Cloudy - 13.7 1013.7 0.0
15/06:58am WNW 19 27 - - - - 10 Cloudy - 13.6 1013.7 0.0
15/06:30am WNW 17 27 - - - - 10 Cloudy - 13.5 1013.6 0.0
15/06:28am WNW 17 27 - - - - 10 Partly cloudy - 13.5 1013.6 0.0
15/06:00am WNW 18 26 - - - - 10 Cloudy - 13.5 1013.6 0.0
15/05:30am WNW 16 24 - - - - 10 Cloudy - 13.5 1013.5 0.0
15/05:00am WNW 17 23 - - - - 10 Cloudy - 13.6 1013.5 0.0
15/04:30am NW 19 23 - - - - 10 Cloudy - 13.8 1013.6 0.0
15/04:00am NW 19 24 - - - - 10 Partly cloudy - 14.1 1013.7 0.0
15/03:42am NW 20 30 - - - - 10 Partly cloudy - 13.9 1013.9 0.0
15/03:30am NW 20 27 - - - - 10 Partly cloudy - 14.0 1013.9 0.0
15/03:00am NW 16 22 - - - - 10 Cloudy - 13.7 1014.0 0.0
15/02:30am NW 17 23 - - - - 10 Partly cloudy - 13.2 1014.6 0.0
15/02:00am WNW 13 17 - - - - 10 Partly cloudy - 12.5 1015.0 0.0
15/01:30am WNW 12 16 - - - - 10 Partly cloudy - 12.0 1015.5 0.0
15/01:00am WNW 11 15 - - - - 10 Partly cloudy - 11.7 1016.1 0.0
15/12:30am WNW 11 15 - - - - 9 Partly cloudy - 11.6 1016.5 0.0
15/12:00am WNW 12 16 - - - - 8 Cloudy - 11.5 1017.5 0.0
 
Date/Time
EST
Wind Sea
Height
m
Swell Vis
km
Cloud Weather Temp
°C
Press
hPa
Rain since
9am
mm
Dir  Spd
kts
Gust
kts
Height
m
Period
s
Dir
14/11:30pm WNW 9 14 - - - - 8 Partly cloudy - 11.5 1017.8 0.0
14/11:00pm WNW 10 14 - - - - 8 - - 10.8 1018.3 0.0
14/10:30pm WNW 10 13 - - - - 8 Partly cloudy - 10.9 1019.0 0.0
14/10:00pm WNW 9 13 - - - - 8 - - 11.1 1019.5 0.0
14/09:30pm WNW 9 11 - - - - 8 Partly cloudy - 10.5 1019.3 0.0
14/09:15pm WNW 9 13 - - - - 9 Partly cloudy - 10.6 1019.4 0.0
14/09:00pm WNW 10 14 - - - - 9 Cloudy - 10.8 1019.4 0.0
14/08:30pm WNW 10 15 - - - - 9 Cloudy - 11.0 1019.6 0.0
14/08:00pm WNW 13 19 - - - - 9 Cloudy - 11.3 1019.7 0.0
14/07:30pm WNW 12 17 - - - - 9 Cloudy - 11.3 1019.6 0.0
14/07:00pm WNW 15 19 - - - - 9 Cloudy - 11.3 1020.0 0.0
14/06:30pm WNW 11 15 - - - - 9 Cloudy - 10.8 1019.7 0.0
14/06:00pm WNW 14 18 - - - - 9 Partly cloudy - 11.1 1020.0 0.0
14/05:30pm W 12 17 - - - - 10 Partly cloudy - 11.3 1020.3 0.0
14/05:00pm W 18 25 - - - - 10 Partly cloudy - 11.9 1020.1 0.0
14/04:30pm W 16 21 - - - - 10 Cloudy - 12.4 1020.1 0.0
14/04:00pm W 19 23 - - - - 10 Cloudy - 12.7 1020.4 0.0
14/03:30pm W 20 25 - - - - 10 Cloudy - 12.6 1020.3 0.0
14/03:00pm W 20 23 - - - - 10 Cloudy - 12.8 1020.6 0.0
14/02:30pm W 19 22 - - - - 10 Cloudy - 13.4 1020.7 0.0
14/02:00pm W 21 26 - - - - 10 Cloudy - 13.8 1020.9 0.0
14/01:30pm W 22 26 - - - - 10 Cloudy - 13.1 1021.3 0.0
14/01:00pm W 21 25 - - - - 10 Cloudy - 12.9 1021.3 0.0
14/12:30pm W 20 26 - - - - 10 Cloudy - 13.4 1021.7 0.0
14/12:00pm W 21 25 - - - - 10 Mostly clear - 13.3 1021.8 0.0
14/11:30am W 19 25 - - - - 10 Partly cloudy - 13.4 1021.8 0.0
14/11:00am W 17 22 - - - - 10 - - 13.0 1021.8 0.0
14/10:30am W 16 20 - - - - 10 Partly cloudy - 12.9 1022.0 0.0
14/10:00am WSW 17 21 - - - - 10 - - 12.8 1022.1 0.0
14/09:30am W 20 26 - - - - 10 - - 12.5 1022.1 0.0
14/09:00am W 21 26 - - - - 10 Mostly clear - 12.4 1022.0 0.0
14/08:30am WSW 19 25 - - - - 10 Partly cloudy - 12.1 1021.8 0.0
14/08:00am W 22 28 - - - - 10 - - 11.7 1021.6 0.0
14/07:30am W 23 27 - - - - 10 - - 11.4 1021.2 0.0
14/07:00am W 23 31 - - - - 10 - - 11.0 1020.8 0.0
14/06:30am WSW 22 28 - - - - 10 - - 10.7 1020.4 0.0
14/06:00am WSW 24 29 - - - - 10 Mostly clear - 10.6 1020.1 0.0
14/05:30am WSW 24 30 - - - - 10 Partly cloudy - 10.7 1019.6 0.0
14/05:00am W 21 27 - - - - 8 Partly cloudy - 10.9 1019.2 0.0
14/04:30am W 20 28 - - - - 8 Partly cloudy - 11.1 1019.5 0.0
14/04:00am W 22 28 - - - - 8 Cloudy - 10.9 1019.3 0.0
14/03:30am WSW 23 28 - - - - 8 Partly cloudy - 11.0 1019.1 0.0
14/03:00am W 23 28 - - - - 9 Cloudy - 10.9 1019.0 0.0
14/02:30am W 25 29 - - - - 9 Partly cloudy - 10.8 1018.9 0.0
14/02:00am W 24 29 - - - - 9 Partly cloudy - 11.0 1018.8 0.0
14/01:30am W 20 26 - - - - 8 Partly cloudy - 11.1 1019.1 0.0
14/01:00am W 25 33 - - - - 9 Partly cloudy - 11.3 1018.4 0.0
14/12:30am WSW 25 32 - - - - 9 - - 11.3 1017.9 0.0
14/12:00am W 28 36 - - - - 9 - - 11.5 1017.6 0.0
 
Date/Time
EST
Wind Sea
Height
m
Swell Vis
km
Cloud Weather Temp
°C
Press
hPa
Rain since
9am
mm
Dir  Spd
kts
Gust
kts
Height
m
Period
s
Dir
13/11:47pm W 28 38 - - - - 8 - - 11.4 1017.5 0.0
13/11:30pm W 30 35 - - - - 9 - - 11.5 1017.2 0.0
13/11:00pm W 28 35 - - - - 8 - - 11.6 1017.2 0.0
13/10:30pm W 29 37 - - - - 9 - - 11.8 1017.0 0.0
13/10:00pm W 27 35 - - - - 9 - - 12.0 1016.7 0.0
13/09:30pm W 27 34 - - - - 9 Partly cloudy - 12.0 1016.4 0.0
13/09:17pm W 28 36 - - - - 9 Partly cloudy - 12.1 1016.3 0.0
13/09:02pm W 26 33 - - - - 9 Partly cloudy - 12.1 1016.3 0.0
13/09:00pm W 25 33 - - - - 10 Mostly cloudy - 12.2 1016.2 0.0
13/08:52pm W 24 34 - - - - 10 Partly cloudy - 12.2 1016.0 0.0
13/08:41pm W 24 32 - - - - 10 Partly cloudy - 12.3 1016.0 0.0
13/08:30pm WNW 24 30 - - - - 10 Partly cloudy - 12.1 1016.2 0.0
13/08:00pm WNW 23 29 - - - - 8 Cloudy - 11.7 1016.3 0.0
13/07:59pm WNW 23 31 - - - - 8 Cloudy - 11.7 1016.3 0.0
13/07:52pm WNW 23 33 - - - - 6 Cloudy - 11.7 1016.5 0.0
13/07:30pm WNW 22 29 - - - - 5 Partly cloudy - 11.7 1016.2 0.0
13/07:25pm WNW 21 31 - - - - 10 Cloudy - 12.2 1016.1 0.0
13/07:16pm WNW 21 30 - - - - 10 Cloudy - 12.2 1016.1 0.0
13/07:03pm WNW 20 31 - - - - 10 Cloudy - 12.0 1016.1 0.0
13/07:00pm WNW 19 26 - - - - 10 Cloudy - 12.0 1016.1 0.0
13/06:56pm WNW 19 26 - - - - 10 Cloudy - 11.9 1016.2 0.0
13/06:46pm WNW 18 28 - - - - 10 Cloudy - 11.8 1016.2 0.0
13/06:30pm WNW 20 28 - - - - 10 Partly cloudy - 11.7 1016.2 0.0
13/06:00pm WNW 19 26 - - - - 10 Cloudy - 11.7 1016.4 0.0
13/05:30pm WNW 19 28 - - - - 10 Partly cloudy - 11.6 1016.4 0.0
13/05:00pm WNW 19 26 - - - - 7 Partly cloudy - 11.3 1016.6 0.0
13/04:46pm WNW 20 30 - - - - 8 Partly cloudy - 11.4 1016.6 0.0
13/04:30pm WNW 19 28 - - - - 9 Partly cloudy - 11.5 1016.7 0.0
13/04:00pm WNW 20 29 - - - - 10 Partly cloudy - 11.9 1016.6 0.0
13/03:47pm WNW 22 28 - - - - 10 Partly cloudy - 11.9 1016.7 0.0
13/03:30pm WNW 22 29 - - - - 10 Cloudy - 12.1 1016.6 0.0
13/03:00pm WNW 16 21 - - - - 10 Cloudy - 11.7 1016.3 0.0
13/02:30pm WNW 17 23 - - - - 10 Partly cloudy - 11.8 1016.9 0.0
13/02:00pm WNW 19 25 - - - - 10 Partly cloudy - 11.9 1017.9 0.0
13/01:30pm WNW 19 26 - - - - 10 Partly cloudy - 12.2 1018.6 0.0
13/01:00pm W 22 30 - - - - 10 Partly cloudy - 11.6 1019.2 0.0
13/12:30pm WNW 19 25 - - - - 10 Cloudy - 12.3 1019.5 0.0
13/12:00pm W 18 23 - - - - 10 Cloudy - 12.3 1019.6 0.0
13/11:30am W 17 22 - - - - 10 Cloudy - 12.1 1019.9 0.0
13/11:00am W 17 24 - - - - 10 Cloudy - 11.7 1020.1 0.0
13/10:30am W 16 20 - - - - 10 Cloudy - 11.7 1020.6 0.0

Other formats

Comma delimited format used in spreadsheet applications
http://www.bom.gov.au/fwo/IDT60701/IDT60701.94980.axf

JavaScript Object Notation format (JSON) in row-major order
http://www.bom.gov.au/fwo/IDT60701/IDT60701.94980.json

Data quality

Most of these data are generated automatically and are frequently updated. Quality checks on data are not normally performed. It is possible for incorrect values to appear. Refer to information at About Latest Weather Observations and please check the disclaimer before using these data.